sensor_id;sensor_type;location;lat;lon;timestamp;P1;durP1;ratioP1;P2;durP2;ratioP2
64313;SDS011;50650;48.180;11.524;2023-04-24T00:00:14;0.98;;;0.40;;
64313;SDS011;50650;48.180;11.524;2023-04-24T00:02:42;1.50;;;0.77;;
64313;SDS011;50650;48.180;11.524;2023-04-24T00:05:12;1.02;;;0.60;;
64313;SDS011;50650;48.180;11.524;2023-04-24T00:07:38;1.88;;;0.60;;
64313;SDS011;50650;48.180;11.524;2023-04-24T00:10:05;2.40;;;0.70;;
64313;SDS011;50650;48.180;11.524;2023-04-24T00:12:32;1.90;;;0.60;;
64313;SDS011;50650;48.180;11.524;2023-04-24T00:15:00;1.25;;;0.50;;
64313;SDS011;50650;48.180;11.524;2023-04-24T00:17:27;3.78;;;0.70;;
64313;SDS011;50650;48.180;11.524;2023-04-24T00:19:53;2.97;;;0.57;;
64313;SDS011;50650;48.180;11.524;2023-04-24T00:22:23;2.05;;;0.68;;
64313;SDS011;50650;48.180;11.524;2023-04-24T00:24:50;1.13;;;0.50;;
64313;SDS011;50650;48.180;11.524;2023-04-24T00:27:16;1.27;;;0.52;;
64313;SDS011;50650;48.180;11.524;2023-04-24T00:29:42;2.33;;;0.60;;
64313;SDS011;50650;48.180;11.524;2023-04-24T00:32:10;2.10;;;0.63;;
64313;SDS011;50650;48.180;11.524;2023-04-24T00:34:37;1.90;;;0.60;;
64313;SDS011;50650;48.180;11.524;2023-04-24T00:37:03;1.20;;;0.50;;
64313;SDS011;50650;48.180;11.524;2023-04-24T00:39:30;3.40;;;0.63;;
64313;SDS011;50650;48.180;11.524;2023-04-24T00:41:56;0.70;;;0.50;;
64313;SDS011;50650;48.180;11.524;2023-04-24T00:44:23;0.98;;;0.50;;
64313;SDS011;50650;48.180;11.524;2023-04-24T00:46:49;2.90;;;0.50;;
64313;SDS011;50650;48.180;11.524;2023-04-24T00:49:21;1.52;;;0.47;;
64313;SDS011;50650;48.180;11.524;2023-04-24T00:51:48;1.15;;;0.55;;
64313;SDS011;50650;48.180;11.524;2023-04-24T00:54:16;1.25;;;0.40;;
64313;SDS011;50650;48.180;11.524;2023-04-24T00:56:42;1.25;;;0.60;;
64313;SDS011;50650;48.180;11.524;2023-04-24T00:59:10;0.73;;;0.50;;
64313;SDS011;50650;48.180;11.524;2023-04-24T01:01:37;1.08;;;0.43;;
64313;SDS011;50650;48.180;11.524;2023-04-24T01:04:07;0.60;;;0.20;;
64313;SDS011;50650;48.180;11.524;2023-04-24T01:06:36;4.63;;;0.43;;
64313;SDS011;50650;48.180;11.524;2023-04-24T01:09:05;1.20;;;0.45;;
64313;SDS011;50650;48.180;11.524;2023-04-24T01:11:32;1.15;;;0.35;;
64313;SDS011;50650;48.180;11.524;2023-04-24T01:13:58;0.45;;;0.30;;
64313;SDS011;50650;48.180;11.524;2023-04-24T01:16:25;0.70;;;0.40;;
64313;SDS011;50650;48.180;11.524;2023-04-24T01:18:51;1.42;;;0.30;;
64313;SDS011;50650;48.180;11.524;2023-04-24T01:21:18;0.47;;;0.30;;
64313;SDS011;50650;48.180;11.524;2023-04-24T01:23:46;0.88;;;0.30;;
64313;SDS011;50650;48.180;11.524;2023-04-24T01:26:13;0.30;;;0.28;;
64313;SDS011;50650;48.180;11.524;2023-04-24T01:28:42;0.68;;;0.40;;
64313;SDS011;50650;48.180;11.524;2023-04-24T01:31:09;0.65;;;0.50;;
64313;SDS011;50650;48.180;11.524;2023-04-24T01:33:35;0.30;;;0.30;;
64313;SDS011;50650;48.180;11.524;2023-04-24T01:36:02;1.85;;;0.40;;
64313;SDS011;50650;48.180;11.524;2023-04-24T01:38:28;0.32;;;0.10;;
64313;SDS011;50650;48.180;11.524;2023-04-24T01:40:56;0.20;;;0.20;;
64313;SDS011;50650;48.180;11.524;2023-04-24T01:43:30;0.40;;;0.30;;
64313;SDS011;50650;48.180;11.524;2023-04-24T01:45:56;0.22;;;0.20;;
64313;SDS011;50650;48.180;11.524;2023-04-24T01:48:23;1.05;;;0.30;;
64313;SDS011;50650;48.180;11.524;2023-04-24T01:50:49;0.60;;;0.38;;
64313;SDS011;50650;48.180;11.524;2023-04-24T01:53:15;0.95;;;0.20;;
64313;SDS011;50650;48.180;11.524;2023-04-24T01:55:42;1.27;;;0.32;;
64313;SDS011;50650;48.180;11.524;2023-04-24T01:58:10;4.07;;;0.30;;
64313;SDS011;50650;48.180;11.524;2023-04-24T02:00:36;0.63;;;0.20;;
64313;SDS011;50650;48.180;11.524;2023-04-24T02:03:03;0.50;;;0.30;;
64313;SDS011;50650;48.180;11.524;2023-04-24T02:05:29;1.85;;;0.50;;
64313;SDS011;50650;48.180;11.524;2023-04-24T02:07:56;3.45;;;0.20;;
64313;SDS011;50650;48.180;11.524;2023-04-24T02:10:22;0.60;;;0.30;;
64313;SDS011;50650;48.180;11.524;2023-04-24T02:12:50;0.68;;;0.30;;
64313;SDS011;50650;48.180;11.524;2023-04-24T02:15:18;0.95;;;0.30;;
64313;SDS011;50650;48.180;11.524;2023-04-24T02:17:44;0.35;;;0.28;;
64313;SDS011;50650;48.180;11.524;2023-04-24T02:20:10;2.10;;;0.50;;
64313;SDS011;50650;48.180;11.524;2023-04-24T02:22:37;1.48;;;0.35;;
64313;SDS011;50650;48.180;11.524;2023-04-24T02:25:04;0.20;;;0.20;;
64313;SDS011;50650;48.180;11.524;2023-04-24T02:27:31;0.82;;;0.35;;
64313;SDS011;50650;48.180;11.524;2023-04-24T02:29:57;0.70;;;0.38;;
64313;SDS011;50650;48.180;11.524;2023-04-24T02:32:25;1.52;;;0.70;;
64313;SDS011;50650;48.180;11.524;2023-04-24T02:34:52;1.30;;;0.50;;
64313;SDS011;50650;48.180;11.524;2023-04-24T02:37:18;0.45;;;0.32;;
64313;SDS011;50650;48.180;11.524;2023-04-24T02:39:45;0.90;;;0.30;;
64313;SDS011;50650;48.180;11.524;2023-04-24T02:42:11;1.50;;;0.32;;
64313;SDS011;50650;48.180;11.524;2023-04-24T02:44:38;3.75;;;0.43;;
64313;SDS011;50650;48.180;11.524;2023-04-24T02:47:04;3.60;;;0.38;;
64313;SDS011;50650;48.180;11.524;2023-04-24T02:49:32;2.08;;;0.65;;
64313;SDS011;50650;48.180;11.524;2023-04-24T02:51:58;0.45;;;0.30;;
64313;SDS011;50650;48.180;11.524;2023-04-24T02:54:24;0.68;;;0.30;;
64313;SDS011;50650;48.180;11.524;2023-04-24T02:56:51;0.35;;;0.30;;
64313;SDS011;50650;48.180;11.524;2023-04-24T02:59:17;1.15;;;0.77;;
64313;SDS011;50650;48.180;11.524;2023-04-24T03:01:44;0.50;;;0.30;;
64313;SDS011;50650;48.180;11.524;2023-04-24T03:04:10;0.45;;;0.20;;
64313;SDS011;50650;48.180;11.524;2023-04-24T03:06:38;0.68;;;0.40;;
64313;SDS011;50650;48.180;11.524;2023-04-24T03:09:05;0.40;;;0.20;;
64313;SDS011;50650;48.180;11.524;2023-04-24T03:11:31;0.50;;;0.20;;
64313;SDS011;50650;48.180;11.524;2023-04-24T03:13:58;1.70;;;0.38;;
64313;SDS011;50650;48.180;11.524;2023-04-24T03:16:24;2.00;;;0.30;;
64313;SDS011;50650;48.180;11.524;2023-04-24T03:18:51;0.85;;;0.32;;
64313;SDS011;50650;48.180;11.524;2023-04-24T03:21:17;0.40;;;0.30;;
64313;SDS011;50650;48.180;11.524;2023-04-24T03:23:45;1.10;;;0.40;;
64313;SDS011;50650;48.180;11.524;2023-04-24T03:26:11;0.30;;;0.20;;
64313;SDS011;50650;48.180;11.524;2023-04-24T03:28:37;1.73;;;0.20;;
64313;SDS011;50650;48.180;11.524;2023-04-24T03:31:04;0.57;;;0.30;;
64313;SDS011;50650;48.180;11.524;2023-04-24T03:33:31;0.52;;;0.30;;
64313;SDS011;50650;48.180;11.524;2023-04-24T03:35:57;0.98;;;0.50;;
64313;SDS011;50650;48.180;11.524;2023-04-24T03:38:23;1.85;;;0.30;;
64313;SDS011;50650;48.180;11.524;2023-04-24T03:40:51;1.50;;;0.30;;
64313;SDS011;50650;48.180;11.524;2023-04-24T03:43:18;1.05;;;0.30;;
64313;SDS011;50650;48.180;11.524;2023-04-24T03:45:44;2.00;;;0.32;;
64313;SDS011;50650;48.180;11.524;2023-04-24T03:48:11;0.98;;;0.47;;
64313;SDS011;50650;48.180;11.524;2023-04-24T03:50:37;0.50;;;0.30;;
64313;SDS011;50650;48.180;11.524;2023-04-24T03:53:03;0.98;;;0.38;;
64313;SDS011;50650;48.180;11.524;2023-04-24T03:55:30;1.38;;;0.43;;
64313;SDS011;50650;48.180;11.524;2023-04-24T03:57:58;0.65;;;0.30;;
64313;SDS011;50650;48.180;11.524;2023-04-24T04:00:24;3.10;;;0.47;;
64313;SDS011;50650;48.180;11.524;2023-04-24T04:02:51;3.03;;;0.60;;
64313;SDS011;50650;48.180;11.524;2023-04-24T04:05:17;1.75;;;0.43;;
64313;SDS011;50650;48.180;11.524;2023-04-24T04:07:43;1.42;;;0.30;;
64313;SDS011;50650;48.180;11.524;2023-04-24T04:10:10;0.50;;;0.35;;
64313;SDS011;50650;48.180;11.524;2023-04-24T04:12:36;1.10;;;0.40;;
64313;SDS011;50650;48.180;11.524;2023-04-24T04:15:04;0.57;;;0.32;;
64313;SDS011;50650;48.180;11.524;2023-04-24T04:17:31;0.80;;;0.40;;
64313;SDS011;50650;48.180;11.524;2023-04-24T04:19:58;1.75;;;0.50;;
64313;SDS011;50650;48.180;11.524;2023-04-24T04:22:25;0.90;;;0.30;;
64313;SDS011;50650;48.180;11.524;2023-04-24T04:24:51;1.58;;;0.30;;
64313;SDS011;50650;48.180;11.524;2023-04-24T04:27:17;0.77;;;0.40;;
64313;SDS011;50650;48.180;11.524;2023-04-24T04:29:46;1.52;;;0.30;;
64313;SDS011;50650;48.180;11.524;2023-04-24T04:32:14;1.58;;;0.50;;
64313;SDS011;50650;48.180;11.524;2023-04-24T04:34:41;1.40;;;0.40;;
64313;SDS011;50650;48.180;11.524;2023-04-24T04:37:07;0.50;;;0.40;;
64313;SDS011;50650;48.180;11.524;2023-04-24T04:39:36;1.13;;;0.30;;
64313;SDS011;50650;48.180;11.524;2023-04-24T04:42:02;4.53;;;0.35;;
64313;SDS011;50650;48.180;11.524;2023-04-24T04:44:29;0.50;;;0.35;;
64313;SDS011;50650;48.180;11.524;2023-04-24T04:46:55;0.68;;;0.32;;
64313;SDS011;50650;48.180;11.524;2023-04-24T04:49:23;1.33;;;0.40;;
64313;SDS011;50650;48.180;11.524;2023-04-24T04:51:50;1.40;;;0.30;;
64313;SDS011;50650;48.180;11.524;2023-04-24T04:54:17;1.67;;;0.65;;
64313;SDS011;50650;48.180;11.524;2023-04-24T04:56:43;0.93;;;0.43;;
64313;SDS011;50650;48.180;11.524;2023-04-24T04:59:09;2.55;;;0.68;;
64313;SDS011;50650;48.180;11.524;2023-04-24T05:01:37;0.80;;;0.40;;
64313;SDS011;50650;48.180;11.524;2023-04-24T05:04:03;1.25;;;0.50;;
64313;SDS011;50650;48.180;11.524;2023-04-24T05:06:31;1.23;;;0.30;;
64313;SDS011;50650;48.180;11.524;2023-04-24T05:08:58;1.42;;;0.47;;
64313;SDS011;50650;48.180;11.524;2023-04-24T05:11:24;4.63;;;0.70;;
64313;SDS011;50650;48.180;11.524;2023-04-24T05:13:50;3.92;;;0.50;;
64313;SDS011;50650;48.180;11.524;2023-04-24T05:16:17;0.82;;;0.40;;
64313;SDS011;50650;48.180;11.524;2023-04-24T05:18:43;2.55;;;0.50;;
64313;SDS011;50650;48.180;11.524;2023-04-24T05:21:10;1.45;;;0.40;;
64313;SDS011;50650;48.180;11.524;2023-04-24T05:23:37;1.70;;;0.30;;
64313;SDS011;50650;48.180;11.524;2023-04-24T05:26:04;0.55;;;0.20;;
64313;SDS011;50650;48.180;11.524;2023-04-24T05:28:31;2.20;;;0.52;;
64313;SDS011;50650;48.180;11.524;2023-04-24T05:30:57;2.72;;;0.70;;
64313;SDS011;50650;48.180;11.524;2023-04-24T05:33:24;1.17;;;0.40;;
64313;SDS011;50650;48.180;11.524;2023-04-24T05:35:50;0.80;;;0.52;;
64313;SDS011;50650;48.180;11.524;2023-04-24T05:38:17;1.48;;;0.32;;
64313;SDS011;50650;48.180;11.524;2023-04-24T05:40:46;4.35;;;0.45;;
64313;SDS011;50650;48.180;11.524;2023-04-24T05:43:12;0.93;;;0.40;;
64313;SDS011;50650;48.180;11.524;2023-04-24T05:45:39;0.38;;;0.20;;
64313;SDS011;50650;48.180;11.524;2023-04-24T05:48:05;1.08;;;0.40;;
64313;SDS011;50650;48.180;11.524;2023-04-24T05:50:31;1.05;;;0.30;;
64313;SDS011;50650;48.180;11.524;2023-04-24T05:52:58;0.63;;;0.30;;
64313;SDS011;50650;48.180;11.524;2023-04-24T05:55:25;0.85;;;0.30;;
64313;SDS011;50650;48.180;11.524;2023-04-24T05:57:52;1.83;;;0.30;;
64313;SDS011;50650;48.180;11.524;2023-04-24T06:00:19;0.95;;;0.30;;
64313;SDS011;50650;48.180;11.524;2023-04-24T06:02:46;1.10;;;0.30;;
64313;SDS011;50650;48.180;11.524;2023-04-24T06:05:13;0.65;;;0.32;;
64313;SDS011;50650;48.180;11.524;2023-04-24T06:07:39;1.35;;;0.50;;
64313;SDS011;50650;48.180;11.524;2023-04-24T06:10:07;1.02;;;0.40;;
64313;SDS011;50650;48.180;11.524;2023-04-24T06:12:34;2.95;;;0.50;;
64313;SDS011;50650;48.180;11.524;2023-04-24T06:15:01;0.52;;;0.30;;
64313;SDS011;50650;48.180;11.524;2023-04-24T06:17:28;1.23;;;0.22;;
64313;SDS011;50650;48.180;11.524;2023-04-24T06:19:55;0.50;;;0.30;;
64313;SDS011;50650;48.180;11.524;2023-04-24T06:22:21;1.30;;;0.40;;
64313;SDS011;50650;48.180;11.524;2023-04-24T06:24:47;0.80;;;0.20;;
64313;SDS011;50650;48.180;11.524;2023-04-24T06:27:14;1.25;;;0.30;;
64313;SDS011;50650;48.180;11.524;2023-04-24T06:29:40;0.40;;;0.20;;
64313;SDS011;50650;48.180;11.524;2023-04-24T06:32:08;4.03;;;0.30;;
64313;SDS011;50650;48.180;11.524;2023-04-24T06:34:35;0.88;;;0.60;;
64313;SDS011;50650;48.180;11.524;2023-04-24T06:37:01;0.93;;;0.20;;
64313;SDS011;50650;48.180;11.524;2023-04-24T06:39:28;0.35;;;0.20;;
64313;SDS011;50650;48.180;11.524;2023-04-24T06:41:54;0.50;;;0.30;;
64313;SDS011;50650;48.180;11.524;2023-04-24T06:44:21;0.40;;;0.30;;
64313;SDS011;50650;48.180;11.524;2023-04-24T06:46:47;0.98;;;0.30;;
64313;SDS011;50650;48.180;11.524;2023-04-24T06:49:15;0.50;;;0.22;;
64313;SDS011;50650;48.180;11.524;2023-04-24T06:51:42;0.60;;;0.30;;
64313;SDS011;50650;48.180;11.524;2023-04-24T06:54:08;1.50;;;0.40;;
64313;SDS011;50650;48.180;11.524;2023-04-24T06:56:35;0.88;;;0.30;;
64313;SDS011;50650;48.180;11.524;2023-04-24T06:59:01;2.22;;;0.50;;
64313;SDS011;50650;48.180;11.524;2023-04-24T07:01:28;0.95;;;0.30;;
64313;SDS011;50650;48.180;11.524;2023-04-24T07:03:54;0.63;;;0.35;;
64313;SDS011;50650;48.180;11.524;2023-04-24T07:06:22;1.65;;;0.32;;
64313;SDS011;50650;48.180;11.524;2023-04-24T07:08:49;0.95;;;0.30;;
64313;SDS011;50650;48.180;11.524;2023-04-24T07:11:15;0.20;;;0.20;;
64313;SDS011;50650;48.180;11.524;2023-04-24T07:13:42;0.70;;;0.35;;
64313;SDS011;50650;48.180;11.524;2023-04-24T07:16:09;1.35;;;0.30;;
64313;SDS011;50650;48.180;11.524;2023-04-24T07:18:35;0.30;;;0.30;;
64313;SDS011;50650;48.180;11.524;2023-04-24T07:21:02;0.40;;;0.30;;
64313;SDS011;50650;48.180;11.524;2023-04-24T07:23:30;0.90;;;0.40;;
64313;SDS011;50650;48.180;11.524;2023-04-24T07:25:56;1.25;;;0.45;;
64313;SDS011;50650;48.180;11.524;2023-04-24T07:28:23;0.20;;;0.20;;
64313;SDS011;50650;48.180;11.524;2023-04-24T07:30:49;0.50;;;0.30;;
64313;SDS011;50650;48.180;11.524;2023-04-24T07:33:18;0.90;;;0.40;;
64313;SDS011;50650;48.180;11.524;2023-04-24T07:35:45;1.42;;;0.50;;
64313;SDS011;50650;48.180;11.524;2023-04-24T07:38:13;1.90;;;0.47;;
64313;SDS011;50650;48.180;11.524;2023-04-24T07:40:41;2.15;;;0.60;;
64313;SDS011;50650;48.180;11.524;2023-04-24T07:43:08;3.38;;;0.50;;
64313;SDS011;50650;48.180;11.524;2023-04-24T07:45:34;0.52;;;0.30;;
64313;SDS011;50650;48.180;11.524;2023-04-24T07:48:02;1.42;;;0.35;;
64313;SDS011;50650;48.180;11.524;2023-04-24T07:50:29;2.13;;;0.20;;
64313;SDS011;50650;48.180;11.524;2023-04-24T07:52:55;0.90;;;0.40;;
64313;SDS011;50650;48.180;11.524;2023-04-24T07:55:21;0.55;;;0.30;;
64313;SDS011;50650;48.180;11.524;2023-04-24T07:57:49;2.40;;;0.40;;
64313;SDS011;50650;48.180;11.524;2023-04-24T08:00:17;0.70;;;0.50;;
64313;SDS011;50650;48.180;11.524;2023-04-24T08:02:43;2.15;;;0.60;;
64313;SDS011;50650;48.180;11.524;2023-04-24T08:05:10;0.82;;;0.30;;
64313;SDS011;50650;48.180;11.524;2023-04-24T08:07:36;1.08;;;0.38;;
64313;SDS011;50650;48.180;11.524;2023-04-24T08:10:04;2.35;;;0.40;;
64313;SDS011;50650;48.180;11.524;2023-04-24T08:12:31;1.05;;;0.50;;
64313;SDS011;50650;48.180;11.524;2023-04-24T08:14:59;0.50;;;0.40;;
64313;SDS011;50650;48.180;11.524;2023-04-24T08:17:25;1.60;;;0.50;;
64313;SDS011;50650;48.180;11.524;2023-04-24T08:19:52;0.60;;;0.50;;
64313;SDS011;50650;48.180;11.524;2023-04-24T08:22:26;1.02;;;0.47;;
64313;SDS011;50650;48.180;11.524;2023-04-24T08:24:52;0.63;;;0.40;;
64313;SDS011;50650;48.180;11.524;2023-04-24T08:27:19;0.45;;;0.30;;
64313;SDS011;50650;48.180;11.524;2023-04-24T08:29:45;0.47;;;0.35;;
64313;SDS011;50650;48.180;11.524;2023-04-24T08:32:13;0.50;;;0.30;;
64313;SDS011;50650;48.180;11.524;2023-04-24T08:34:39;0.22;;;0.20;;
64313;SDS011;50650;48.180;11.524;2023-04-24T08:37:05;0.57;;;0.38;;
64313;SDS011;50650;48.180;11.524;2023-04-24T08:39:32;0.50;;;0.40;;
64313;SDS011;50650;48.180;11.524;2023-04-24T08:41:58;0.50;;;0.40;;
64313;SDS011;50650;48.180;11.524;2023-04-24T08:44:30;0.88;;;0.47;;
64313;SDS011;50650;48.180;11.524;2023-04-24T08:46:57;0.50;;;0.40;;
64313;SDS011;50650;48.180;11.524;2023-04-24T08:49:24;0.88;;;0.43;;
64313;SDS011;50650;48.180;11.524;2023-04-24T08:51:54;1.77;;;0.57;;
64313;SDS011;50650;48.180;11.524;2023-04-24T08:54:20;2.95;;;0.55;;
64313;SDS011;50650;48.180;11.524;2023-04-24T08:56:48;0.98;;;0.50;;
64313;SDS011;50650;48.180;11.524;2023-04-24T08:59:17;1.60;;;0.55;;
64313;SDS011;50650;48.180;11.524;2023-04-24T09:01:44;1.35;;;0.70;;
64313;SDS011;50650;48.180;11.524;2023-04-24T09:04:11;1.05;;;0.47;;
64313;SDS011;50650;48.180;11.524;2023-04-24T09:06:40;2.10;;;0.75;;
64313;SDS011;50650;48.180;11.524;2023-04-24T09:09:07;1.33;;;0.60;;
64313;SDS011;50650;48.180;11.524;2023-04-24T09:11:34;2.17;;;0.60;;
64313;SDS011;50650;48.180;11.524;2023-04-24T09:14:01;1.90;;;0.63;;
64313;SDS011;50650;48.180;11.524;2023-04-24T09:16:28;4.50;;;0.70;;
64313;SDS011;50650;48.180;11.524;2023-04-24T09:18:55;4.45;;;0.63;;
64313;SDS011;50650;48.180;11.524;2023-04-24T09:21:21;1.33;;;0.55;;
64313;SDS011;50650;48.180;11.524;2023-04-24T09:23:58;1.25;;;0.40;;
64313;SDS011;50650;48.180;11.524;2023-04-24T09:26:27;1.85;;;1.05;;
64313;SDS011;50650;48.180;11.524;2023-04-24T09:28:56;3.35;;;0.80;;
64313;SDS011;50650;48.180;11.524;2023-04-24T09:31:22;2.97;;;0.85;;
64313;SDS011;50650;48.180;11.524;2023-04-24T09:33:56;1.63;;;0.63;;
64313;SDS011;50650;48.180;11.524;2023-04-24T09:36:27;1.75;;;0.73;;
64313;SDS011;50650;48.180;11.524;2023-04-24T09:38:58;2.30;;;0.60;;
64313;SDS011;50650;48.180;11.524;2023-04-24T09:41:25;1.30;;;0.70;;
64313;SDS011;50650;48.180;11.524;2023-04-24T09:43:53;2.30;;;0.80;;
64313;SDS011;50650;48.180;11.524;2023-04-24T09:46:19;1.08;;;0.77;;
64313;SDS011;50650;48.180;11.524;2023-04-24T09:48:47;1.00;;;0.60;;
64313;SDS011;50650;48.180;11.524;2023-04-24T09:51:13;2.03;;;0.70;;
64313;SDS011;50650;48.180;11.524;2023-04-24T09:53:44;1.38;;;0.63;;
64313;SDS011;50650;48.180;11.524;2023-04-24T09:56:13;2.30;;;0.90;;
64313;SDS011;50650;48.180;11.524;2023-04-24T09:58:39;3.95;;;1.10;;
64313;SDS011;50650;48.180;11.524;2023-04-24T10:01:06;1.00;;;0.90;;
64313;SDS011;50650;48.180;11.524;2023-04-24T10:03:33;1.52;;;0.70;;
64313;SDS011;50650;48.180;11.524;2023-04-24T10:06:00;2.13;;;0.70;;
64313;SDS011;50650;48.180;11.524;2023-04-24T10:08:26;2.28;;;0.75;;
64313;SDS011;50650;48.180;11.524;2023-04-24T10:10:59;1.25;;;0.75;;
64313;SDS011;50650;48.180;11.524;2023-04-24T10:13:27;1.77;;;0.60;;
64313;SDS011;50650;48.180;11.524;2023-04-24T10:15:54;1.30;;;0.70;;
64313;SDS011;50650;48.180;11.524;2023-04-24T10:18:21;1.52;;;1.00;;
64313;SDS011;50650;48.180;11.524;2023-04-24T10:20:47;1.67;;;0.70;;
64313;SDS011;50650;48.180;11.524;2023-04-24T10:23:14;0.98;;;0.82;;
64313;SDS011;50650;48.180;11.524;2023-04-24T10:25:44;1.48;;;1.00;;
64313;SDS011;50650;48.180;11.524;2023-04-24T10:28:11;1.25;;;0.70;;
64313;SDS011;50650;48.180;11.524;2023-04-24T10:30:39;1.45;;;0.93;;
64313;SDS011;50650;48.180;11.524;2023-04-24T10:33:08;2.83;;;0.80;;
64313;SDS011;50650;48.180;11.524;2023-04-24T10:35:36;2.20;;;0.70;;
64313;SDS011;50650;48.180;11.524;2023-04-24T10:38:05;1.63;;;0.85;;
64313;SDS011;50650;48.180;11.524;2023-04-24T10:40:35;1.63;;;0.93;;
64313;SDS011;50650;48.180;11.524;2023-04-24T10:43:02;2.67;;;0.75;;
64313;SDS011;50650;48.180;11.524;2023-04-24T10:45:31;3.95;;;1.13;;
64313;SDS011;50650;48.180;11.524;2023-04-24T10:47:59;1.75;;;0.80;;
64313;SDS011;50650;48.180;11.524;2023-04-24T10:50:28;1.02;;;0.60;;
64313;SDS011;50650;48.180;11.524;2023-04-24T10:53:04;1.00;;;0.50;;
64313;SDS011;50650;48.180;11.524;2023-04-24T10:55:41;3.30;;;0.73;;
64313;SDS011;50650;48.180;11.524;2023-04-24T10:58:09;1.20;;;0.60;;
64313;SDS011;50650;48.180;11.524;2023-04-24T11:00:36;1.20;;;0.40;;
64313;SDS011;50650;48.180;11.524;2023-04-24T11:03:05;2.00;;;0.75;;
64313;SDS011;50650;48.180;11.524;2023-04-24T11:05:49;1.05;;;0.50;;
64313;SDS011;50650;48.180;11.524;2023-04-24T11:08:21;4.10;;;0.60;;
64313;SDS011;50650;48.180;11.524;2023-04-24T11:10:56;0.95;;;0.40;;
64313;SDS011;50650;48.180;11.524;2023-04-24T11:13:24;1.00;;;0.43;;
64313;SDS011;50650;48.180;11.524;2023-04-24T11:18:41;0.80;;;0.40;;
64313;SDS011;50650;48.180;11.524;2023-04-24T11:21:10;2.65;;;0.60;;
64313;SDS011;50650;48.180;11.524;2023-04-24T11:23:37;0.55;;;0.45;;
64313;SDS011;50650;48.180;11.524;2023-04-24T11:26:14;0.95;;;0.68;;
64313;SDS011;50650;48.180;11.524;2023-04-24T11:28:44;1.42;;;0.80;;
64313;SDS011;50650;48.180;11.524;2023-04-24T11:34:06;2.65;;;0.80;;
64313;SDS011;50650;48.180;11.524;2023-04-24T11:36:33;0.70;;;0.40;;
64313;SDS011;50650;48.180;11.524;2023-04-24T11:39:00;0.88;;;0.50;;
64313;SDS011;50650;48.180;11.524;2023-04-24T11:41:27;0.60;;;0.50;;
64313;SDS011;50650;48.180;11.524;2023-04-24T11:43:54;0.90;;;0.50;;
64313;SDS011;50650;48.180;11.524;2023-04-24T11:46:21;3.22;;;0.60;;
64313;SDS011;50650;48.180;11.524;2023-04-24T11:48:48;0.75;;;0.55;;
64313;SDS011;50650;48.180;11.524;2023-04-24T11:51:15;0.70;;;0.60;;
64313;SDS011;50650;48.180;11.524;2023-04-24T11:53:42;1.17;;;0.60;;
64313;SDS011;50650;48.180;11.524;2023-04-24T11:56:08;0.60;;;0.40;;
64313;SDS011;50650;48.180;11.524;2023-04-24T11:58:35;1.30;;;0.60;;
64313;SDS011;50650;48.180;11.524;2023-04-24T12:01:01;0.70;;;0.50;;
64313;SDS011;50650;48.180;11.524;2023-04-24T12:03:28;0.45;;;0.40;;
64313;SDS011;50650;48.180;11.524;2023-04-24T12:06:04;0.85;;;0.60;;
64313;SDS011;50650;48.180;11.524;2023-04-24T12:08:33;1.23;;;0.60;;
64313;SDS011;50650;48.180;11.524;2023-04-24T12:10:59;0.85;;;0.50;;
64313;SDS011;50650;48.180;11.524;2023-04-24T12:13:26;1.85;;;0.68;;
64313;SDS011;50650;48.180;11.524;2023-04-24T12:15:53;1.95;;;0.77;;
64313;SDS011;50650;48.180;11.524;2023-04-24T12:18:21;1.75;;;0.70;;
64313;SDS011;50650;48.180;11.524;2023-04-24T12:20:48;0.90;;;0.60;;
64313;SDS011;50650;48.180;11.524;2023-04-24T12:23:14;0.90;;;0.65;;
64313;SDS011;50650;48.180;11.524;2023-04-24T12:25:43;2.17;;;0.90;;
64313;SDS011;50650;48.180;11.524;2023-04-24T12:28:10;0.80;;;0.60;;
64313;SDS011;50650;48.180;11.524;2023-04-24T12:30:39;2.47;;;0.63;;
64313;SDS011;50650;48.180;11.524;2023-04-24T12:33:06;1.27;;;0.80;;
64313;SDS011;50650;48.180;11.524;2023-04-24T12:35:33;1.75;;;0.73;;
64313;SDS011;50650;48.180;11.524;2023-04-24T12:38:05;1.63;;;0.60;;
64313;SDS011;50650;48.180;11.524;2023-04-24T12:40:33;4.78;;;1.00;;
64313;SDS011;50650;48.180;11.524;2023-04-24T12:43:00;4.40;;;0.77;;
64313;SDS011;50650;48.180;11.524;2023-04-24T12:45:27;2.67;;;0.60;;
64313;SDS011;50650;48.180;11.524;2023-04-24T12:47:53;1.20;;;0.80;;
64313;SDS011;50650;48.180;11.524;2023-04-24T12:50:20;2.08;;;0.60;;
64313;SDS011;50650;48.180;11.524;2023-04-24T12:52:47;0.80;;;0.55;;
64313;SDS011;50650;48.180;11.524;2023-04-24T12:55:13;0.85;;;0.60;;
64313;SDS011;50650;48.180;11.524;2023-04-24T12:57:40;0.80;;;0.68;;
64313;SDS011;50650;48.180;11.524;2023-04-24T13:00:08;1.02;;;0.52;;
64313;SDS011;50650;48.180;11.524;2023-04-24T13:02:35;6.22;;;0.90;;
64313;SDS011;50650;48.180;11.524;2023-04-24T13:05:01;2.88;;;1.20;;
64313;SDS011;50650;48.180;11.524;2023-04-24T13:07:28;2.88;;;0.77;;
64313;SDS011;50650;48.180;11.524;2023-04-24T13:09:55;1.40;;;0.75;;
64313;SDS011;50650;48.180;11.524;2023-04-24T13:12:21;1.25;;;0.93;;
64313;SDS011;50650;48.180;11.524;2023-04-24T13:14:49;0.95;;;0.80;;
64313;SDS011;50650;48.180;11.524;2023-04-24T13:17:16;0.90;;;0.80;;
64313;SDS011;50650;48.180;11.524;2023-04-24T13:19:43;1.83;;;0.82;;
64313;SDS011;50650;48.180;11.524;2023-04-24T13:22:10;1.40;;;0.90;;
64313;SDS011;50650;48.180;11.524;2023-04-24T13:24:38;3.38;;;0.98;;
64313;SDS011;50650;48.180;11.524;2023-04-24T13:27:05;5.18;;;0.93;;
64313;SDS011;50650;48.180;11.524;2023-04-24T13:29:32;2.58;;;1.02;;
64313;SDS011;50650;48.180;11.524;2023-04-24T13:31:58;2.78;;;0.80;;
64313;SDS011;50650;48.180;11.524;2023-04-24T13:34:27;2.00;;;0.68;;
64313;SDS011;50650;48.180;11.524;2023-04-24T13:36:54;2.05;;;0.70;;
64313;SDS011;50650;48.180;11.524;2023-04-24T13:39:21;1.67;;;1.05;;
64313;SDS011;50650;48.180;11.524;2023-04-24T13:41:47;2.63;;;0.73;;
64313;SDS011;50650;48.180;11.524;2023-04-24T13:44:14;2.22;;;0.80;;
64313;SDS011;50650;48.180;11.524;2023-04-24T13:46:41;2.00;;;0.82;;
64313;SDS011;50650;48.180;11.524;2023-04-24T13:49:09;3.40;;;0.80;;
64313;SDS011;50650;48.180;11.524;2023-04-24T13:51:36;2.00;;;0.80;;
64313;SDS011;50650;48.180;11.524;2023-04-24T13:54:03;1.10;;;0.80;;
64313;SDS011;50650;48.180;11.524;2023-04-24T13:56:30;3.22;;;1.02;;
64313;SDS011;50650;48.180;11.524;2023-04-24T13:58:56;1.80;;;0.90;;
64313;SDS011;50650;48.180;11.524;2023-04-24T14:01:23;2.75;;;0.90;;
64313;SDS011;50650;48.180;11.524;2023-04-24T14:03:49;2.10;;;0.70;;
64313;SDS011;50650;48.180;11.524;2023-04-24T14:06:17;1.08;;;0.80;;
64313;SDS011;50650;48.180;11.524;2023-04-24T14:08:44;1.55;;;0.70;;
64313;SDS011;50650;48.180;11.524;2023-04-24T14:11:11;3.67;;;0.88;;
64313;SDS011;50650;48.180;11.524;2023-04-24T14:13:38;3.17;;;0.70;;
64313;SDS011;50650;48.180;11.524;2023-04-24T14:16:04;2.85;;;0.70;;
64313;SDS011;50650;48.180;11.524;2023-04-24T14:18:31;4.05;;;0.80;;
64313;SDS011;50650;48.180;11.524;2023-04-24T14:20:57;1.95;;;0.88;;
64313;SDS011;50650;48.180;11.524;2023-04-24T14:23:24;1.67;;;0.95;;
64313;SDS011;50650;48.180;11.524;2023-04-24T14:25:52;1.02;;;0.80;;
64313;SDS011;50650;48.180;11.524;2023-04-24T14:28:18;0.85;;;0.60;;
64313;SDS011;50650;48.180;11.524;2023-04-24T14:30:45;2.40;;;1.10;;
64313;SDS011;50650;48.180;11.524;2023-04-24T14:33:11;1.70;;;0.82;;
64313;SDS011;50650;48.180;11.524;2023-04-24T14:35:38;2.65;;;0.90;;
64313;SDS011;50650;48.180;11.524;2023-04-24T14:38:05;2.17;;;0.85;;